Time;durP1;ratioP1;P1;durP2;ratioP2;P2;SDS_P1;SDS_P2;PMS_P1;PMS_P2;Temp;Humidity;BMP_temperature;BMP_pressure;BME280_temperature;BME280_humidity;BME280_pressure;Samples;Min_cycle;Max_cycle;Signal;HPM_P1;HPM_P2
2021/12/12 00:00:27;;;;;;;36.78;21.67;;;;;;;;;;5037533;28;20225;-60
2021/12/12 00:02:58;;;;;;;33.10;19.77;;;;;;;;;;5036494;28;20230;-62
2021/12/12 00:05:30;;;;;;;32.42;18.80;;;;;;;;;;5036641;28;20186;-61
2021/12/12 00:07:57;;;;;;;32.05;20.38;;;;;;;;;;5036064;28;20555;-61
2021/12/12 00:10:28;;;;;;;27.00;19.42;;;;;;;;;;5036064;28;20213;-61
2021/12/12 00:13:00;;;;;;;33.03;20.35;;;;;;;;;;5035274;28;20218;-61
2021/12/12 00:15:28;;;;;;;32.53;19.10;;;;;;;;;;5035139;28;20182;-60
2021/12/12 00:17:55;;;;;;;26.83;18.52;;;;;;;;;;5035510;28;20206;-60
2021/12/12 00:20:24;;;;;;;29.58;17.85;;;;;;;;;;5035115;28;20214;-61
2021/12/12 00:22:52;;;;;;;33.47;18.50;;;;;;;;;;5035143;28;20419;-60
2021/12/12 00:25:20;;;;;;;37.58;20.02;;;;;;;;;;5037915;28;20202;-60
2021/12/12 00:27:49;;;;;;;30.90;18.40;;;;;;;;;;5039199;28;20202;-61
2021/12/12 00:30:16;;;;;;;27.40;18.80;;;;;;;;;;5039756;28;20285;-60
2021/12/12 00:32:44;;;;;;;31.65;18.92;;;;;;;;;;5038959;28;20206;-61
2021/12/12 00:35:12;;;;;;;33.05;20.15;;;;;;;;;;5038480;28;20272;-59
2021/12/12 00:37:40;;;;;;;37.97;19.67;;;;;;;;;;5037505;28;20212;-61
2021/12/12 00:40:10;;;;;;;33.38;19.10;;;;;;;;;;5040045;28;20198;-59
2021/12/12 00:42:39;;;;;;;33.85;21.63;;;;;;;;;;5039213;28;20202;-61
2021/12/12 00:45:10;;;;;;;36.15;22.38;;;;;;;;;;5038625;28;20199;-61
2021/12/12 00:47:37;;;;;;;39.42;21.35;;;;;;;;;;5037678;28;20191;-60
2021/12/12 00:50:06;;;;;;;42.20;21.48;;;;;;;;;;5038029;28;20202;-61
2021/12/12 00:52:34;;;;;;;38.92;22.25;;;;;;;;;;5037252;28;20212;-61
2021/12/12 00:55:01;;;;;;;42.70;22.60;;;;;;;;;;5038343;28;20226;-60
2021/12/12 00:57:29;;;;;;;40.55;23.58;;;;;;;;;;5039308;28;20213;-60
2021/12/12 00:59:57;;;;;;;39.88;22.42;;;;;;;;;;5040885;28;20213;-60
2021/12/12 01:02:29;;;;;;;46.47;23.85;;;;;;;;;;5040223;28;20674;-61
2021/12/12 01:04:58;;;;;;;42.72;24.75;;;;;;;;;;5041354;28;20235;-60
2021/12/12 01:07:27;;;;;;;46.90;23.83;;;;;;;;;;5039809;28;20202;-61
2021/12/12 01:09:57;;;;;;;42.75;24.80;;;;;;;;;;5040613;28;20203;-60
2021/12/12 01:12:27;;;;;;;51.05;25.77;;;;;;;;;;5039882;28;20558;-60
2021/12/12 01:14:58;;;;;;;42.15;24.55;;;;;;;;;;5039833;28;20218;-60
2021/12/12 01:17:32;;;;;;;47.58;24.95;;;;;;;;;;5040052;28;20187;-60
2021/12/12 01:20:01;;;;;;;44.72;24.48;;;;;;;;;;5040871;28;20218;-60
2021/12/12 01:22:32;;;;;;;53.65;26.67;;;;;;;;;;5039939;28;20226;-58
2021/12/12 01:25:01;;;;;;;54.72;27.60;;;;;;;;;;5042900;28;20187;-60
2021/12/12 01:27:28;;;;;;;48.85;25.80;;;;;;;;;;5043325;28;20665;-59
2021/12/12 01:29:56;;;;;;;48.35;25.05;;;;;;;;;;5038971;28;20205;-60
2021/12/12 01:32:27;;;;;;;48.97;28.13;;;;;;;;;;5037694;28;20205;-59
2021/12/12 01:34:58;;;;;;;52.97;25.30;;;;;;;;;;5038314;28;20206;-60
2021/12/12 01:37:37;;;;;;;57.10;27.80;;;;;;;;;;5036504;28;20207;-60
2021/12/12 01:40:08;;;;;;;52.40;27.00;;;;;;;;;;5036657;28;20186;-60
2021/12/12 01:42:38;;;;;;;56.50;28.08;;;;;;;;;;5036620;28;20202;-60
2021/12/12 01:45:08;;;;;;;57.72;27.25;;;;;;;;;;5036726;28;20179;-60
2021/12/12 01:47:37;;;;;;;48.83;26.67;;;;;;;;;;5037131;28;20210;-61
2021/12/12 01:50:08;;;;;;;53.40;28.73;;;;;;;;;;5036772;28;20261;-61
2021/12/12 01:52:36;;;;;;;53.35;26.40;;;;;;;;;;5036105;28;20193;-60
2021/12/12 01:55:12;;;;;;;52.58;26.20;;;;;;;;;;5036144;28;20226;-60
2021/12/12 01:57:40;;;;;;;51.70;29.23;;;;;;;;;;5036024;28;20661;-60
2021/12/12 02:00:10;;;;;;;58.60;25.80;;;;;;;;;;5035922;28;20222;-59
2021/12/12 02:02:37;;;;;;;46.63;25.58;;;;;;;;;;5036467;28;20213;-58
2021/12/12 02:05:07;;;;;;;45.92;25.88;;;;;;;;;;5036021;28;20198;-61
2021/12/12 02:07:39;;;;;;;50.65;25.75;;;;;;;;;;5035995;28;20562;-60
2021/12/12 02:10:11;;;;;;;51.65;27.83;;;3.00;95.40;;;;;;5036036;28;20191;-60
2021/12/12 02:12:39;;;;;;;50.55;26.23;;;3.10;99.90;;;;;;5035153;28;20560;-59
2021/12/12 02:15:09;;;;;;;46.65;24.75;;;3.10;99.90;;;;;;5035166;28;20222;-60
2021/12/12 02:17:41;;;;;;;48.47;25.50;;;3.10;99.90;;;;;;5035417;28;20209;-60
2021/12/12 02:20:21;;;;;;;47.78;24.52;;;3.10;99.90;;;;;;5035517;28;20188;-60
2021/12/12 02:23:04;;;;;;;46.45;25.05;;;3.10;99.90;;;;;;5035176;28;20229;-60
2021/12/12 02:36:35;;;;;;;43.50;23.10;;;3.10;99.90;;;;;;5034951;28;20186;-60
2021/12/12 02:39:15;;;;;;;35.83;22.98;;;3.10;99.90;;;;;;5034830;28;20678;-62
2021/12/12 02:41:44;;;;;;;39.85;23.50;;;3.10;99.90;;;;;;5035119;28;20191;-60
2021/12/12 02:44:13;;;;;;;44.22;25.50;;;3.10;99.90;;;;;;5034582;28;20725;-60
2021/12/12 02:46:42;;;;;;;36.92;21.05;;;3.10;99.90;;;;;;5034985;28;20229;-61
2021/12/12 02:49:24;;;;;;;40.28;23.65;;;3.10;99.90;;;;;;5033849;28;20293;-61
2021/12/12 02:51:53;;;;;;;39.38;22.92;;;3.10;99.90;;;;;;5034535;28;20257;-61
2021/12/12 02:54:22;;;;;;;49.50;23.65;;;3.10;99.90;;;;;;5034625;28;20234;-60
2021/12/12 02:56:50;;;;;;;38.38;21.40;;;3.10;99.90;;;;;;5034962;28;20224;-60
2021/12/12 02:59:21;;;;;;;35.15;22.13;;;3.10;99.90;;;;;;5034897;28;20198;-60
2021/12/12 03:01:53;;;;;;;35.70;22.25;;;3.10;99.90;;;;;;5034835;28;20199;-58
2021/12/12 03:04:21;;;;;;;39.63;23.00;;;3.20;99.90;;;;;;5034870;28;20218;-60
2021/12/12 03:06:48;;;;;;;37.13;20.48;;;3.20;99.90;;;;;;5035077;28;20213;-60
2021/12/12 03:09:23;;;;;;;40.13;21.35;;;3.20;99.90;;;;;;5035185;28;20206;-60
2021/12/12 03:11:56;;;;;;;32.70;20.52;;;3.20;99.90;;;;;;5035312;28;20194;-60
2021/12/12 03:14:23;;;;;;;34.90;20.20;;;3.20;99.90;;;;;;5036254;28;20252;-60
2021/12/12 03:16:50;;;;;;;40.53;21.63;;;3.20;99.90;;;;;;5036798;28;20209;-60
2021/12/12 03:19:20;;;;;;;32.33;19.35;;;3.20;99.90;;;;;;5035473;28;20203;-60
2021/12/12 03:21:49;;;;;;;33.10;19.23;;;3.20;99.90;;;;;;5036776;28;20202;-60
2021/12/12 03:24:20;;;;;;;30.95;18.50;;;3.20;99.90;;;;;;5036058;28;20309;-60
2021/12/12 03:26:50;;;;;;;34.92;20.23;;;3.20;99.90;;;;;;5036535;28;20252;-62
2021/12/12 03:29:18;;;;;;;34.60;20.98;;;3.30;99.90;;;;;;5035594;28;20190;-59
2021/12/12 03:31:49;;;;;;;37.30;19.77;;;3.30;99.90;;;;;;5034768;28;20207;-60
2021/12/12 03:34:21;;;;;;;31.88;18.77;;;3.30;99.90;;;;;;5037069;28;20662;-61
2021/12/12 03:36:51;;;;;;;28.63;16.70;;;3.40;99.90;;;;;;5038281;28;20193;-60
2021/12/12 03:39:21;;;;;;;28.38;18.20;;;3.40;99.90;;;;;;5036831;28;20285;-60
2021/12/12 03:41:51;;;;;;;31.40;19.35;;;3.40;99.90;;;;;;5034236;28;20788;-60
2021/12/12 03:44:21;;;;;;;33.83;18.92;;;3.40;99.90;;;;;;5033859;28;20219;-61
2021/12/12 03:46:52;;;;;;;32.40;18.60;;;3.40;99.90;;;;;;5034325;28;20202;-61
2021/12/12 03:49:21;;;;;;;29.67;17.15;;;3.40;99.90;;;;;;5033695;28;20193;-61
2021/12/12 03:51:49;;;;;;;31.40;17.42;;;3.40;99.90;;;;;;5035337;28;20202;-61
2021/12/12 03:54:16;;;;;;;25.58;17.40;;;3.40;99.90;;;;;;5036535;28;20226;-60
2021/12/12 03:56:45;;;;;;;29.00;17.58;;;3.40;99.90;;;;;;5036077;28;20202;-60
2021/12/12 03:59:15;;;;;;;31.52;17.00;;;3.40;99.90;;;;;;5035472;28;20690;-59
2021/12/12 04:01:47;;;;;;;26.60;17.08;;;3.40;99.90;;;;;;5035543;28;20210;-60
2021/12/12 04:04:22;;;;;;;26.52;16.88;;;3.40;99.90;;;;;;5034856;28;20218;-61
2021/12/12 04:09:00;;;;;;;26.80;15.25;;;3.50;99.90;;;;;;5092629;27;20541;-60
2021/12/12 04:11:31;;;;;;;23.73;16.30;;;3.50;99.90;;;;;;5092689;28;20686;-60
2021/12/12 04:13:58;;;;;;;27.23;17.33;;;3.50;99.90;;;;;;5092966;28;20220;-60
2021/12/12 04:16:28;;;;;;;28.75;17.27;;;3.50;99.90;;;;;;5092228;28;20219;-61
2021/12/12 04:18:55;;;;;;;26.25;16.83;;;3.50;99.90;;;;;;5091832;28;20197;-60
2021/12/12 04:21:23;;;;;;;28.10;17.75;;;3.50;99.90;;;;;;5088138;22;20236;-57
2021/12/12 04:23:51;;;;;;;26.77;16.70;;;3.50;99.90;;;;;;5050419;28;20210;-58
2021/12/12 04:26:22;;;;;;;25.50;15.85;;;3.50;99.90;;;;;;5050399;28;20205;-58
2021/12/12 04:29:02;;;;;;;22.10;14.48;;;3.50;99.90;;;;;;5050288;28;20205;-57
2021/12/12 04:31:30;;;;;;;26.95;15.95;;;3.60;99.90;;;;;;5050518;28;20248;-58
2021/12/12 04:33:57;;;;;;;28.33;14.65;;;3.60;99.90;;;;;;5050349;28;20209;-57
2021/12/12 04:36:31;;;;;;;24.42;14.10;;;3.60;99.90;;;;;;5050420;28;20206;-57
2021/12/12 04:39:01;;;;;;;19.48;14.00;;;3.60;99.90;;;;;;5050734;28;20185;-57
2021/12/12 04:41:29;;;;;;;21.63;14.93;;;3.60;99.90;;;;;;5050491;28;20221;-57
2021/12/12 04:43:56;;;;;;;19.02;12.60;;;3.60;99.90;;;;;;5049959;28;20205;-57
2021/12/12 04:46:36;;;;;;;20.25;14.20;;;3.70;99.90;;;;;;5049820;28;20213;-57
2021/12/12 04:51:57;;;;;;;22.85;14.38;;;3.70;99.90;;;;;;5049741;28;20348;-57
2021/12/12 04:54:33;;;;;;;20.77;13.77;;;3.70;99.90;;;;;;5049652;28;20186;-57
2021/12/12 04:57:08;;;;;;;24.23;13.55;;;3.70;99.90;;;;;;5049661;28;20658;-57
2021/12/12 04:59:42;;;;;;;20.98;12.93;;;3.70;99.90;;;;;;5049906;28;20194;-58
2021/12/12 05:02:14;;;;;;;23.65;12.95;;;3.70;99.90;;;;;;5049376;28;20234;-57
2021/12/12 05:04:48;;;;;;;22.33;14.38;;;3.70;99.90;;;;;;5049806;28;20194;-57
2021/12/12 05:07:20;;;;;;;23.63;13.93;;;3.70;99.90;;;;;;5049638;28;20206;-57
2021/12/12 05:09:52;;;;;;;18.30;12.63;;;3.70;99.90;;;;;;5049344;28;20189;-57
2021/12/12 05:12:25;;;;;;;19.73;12.82;;;3.70;99.90;;;;;;5049448;28;20567;-57
2021/12/12 05:14:55;;;;;;;17.88;13.80;;;3.70;99.90;;;;;;5049490;28;20685;-57
2021/12/12 05:17:25;;;;;;;18.85;13.30;;;3.70;99.90;;;;;;5049696;28;20189;-57
2021/12/12 05:19:55;;;;;;;20.75;13.02;;;3.70;99.90;;;;;;5038590;28;20666;-57
2021/12/12 05:22:31;;;;;;;18.00;12.52;;;3.70;99.90;;;;;;5036421;28;20583;-57
2021/12/12 05:25:02;;;;;;;17.67;12.32;;;3.70;99.90;;;;;;5035824;28;20585;-57
2021/12/12 05:27:33;;;;;;;16.83;12.82;;;3.80;99.90;;;;;;5036077;28;20215;-57
2021/12/12 05:30:06;;;;;;;18.42;12.10;;;3.80;99.90;;;;;;5036068;28;20198;-57
2021/12/12 05:32:36;;;;;;;17.85;11.98;;;3.80;99.90;;;;;;5035791;28;20191;-57
2021/12/12 05:35:06;;;;;;;19.98;11.45;;;3.80;99.90;;;;;;5035614;28;20670;-57
2021/12/12 05:37:34;;;;;;;17.23;11.77;;;3.80;99.90;;;;;;5035696;28;20677;-57
2021/12/12 05:40:04;;;;;;;17.60;11.65;;;3.90;99.90;;;;;;5035565;28;20669;-57
2021/12/12 05:42:33;;;;;;;18.75;11.50;;;3.90;99.90;;;;;;5035494;28;20203;-57
2021/12/12 05:45:01;;;;;;;18.10;11.80;;;4.00;99.90;;;;;;5035400;28;20576;-57
2021/12/12 05:47:29;;;;;;;18.95;11.88;;;4.00;99.90;;;;;;5035573;28;20226;-57
2021/12/12 05:49:58;;;;;;;15.63;11.73;;;4.10;99.90;;;;;;5035210;28;20678;-57
2021/12/12 05:52:25;;;;;;;16.73;11.52;;;4.10;99.90;;;;;;5035203;28;20209;-57
2021/12/12 05:54:54;;;;;;;18.77;12.60;;;4.10;99.90;;;;;;5035524;28;20206;-57
2021/12/12 05:57:25;;;;;;;17.58;11.43;;;4.10;99.90;;;;;;5035187;28;20573;-57
2021/12/12 05:59:56;;;;;;;17.25;10.85;;;4.20;99.90;;;;;;5035405;28;20268;-57
2021/12/12 06:02:25;;;;;;;14.25;10.50;;;4.20;99.90;;;;;;5035189;28;20194;-57
2021/12/12 06:04:55;;;;;;;16.42;10.35;;;4.20;99.90;;;;;;5035365;28;20203;-57
2021/12/12 06:07:23;;;;;;;16.15;10.18;;;4.20;99.90;;;;;;5035270;28;20183;-57
2021/12/12 06:09:51;;;;;;;14.32;9.90;;;4.20;99.90;;;;;;5035208;28;20581;-58
2021/12/12 06:12:20;;;;;;;14.75;10.05;;;4.20;99.90;;;;;;5035221;28;20210;-57
2021/12/12 06:14:48;;;;;;;12.60;9.15;;;4.20;99.90;;;;;;5034805;28;20202;-57
2021/12/12 06:17:20;;;;;;;12.90;9.10;;;4.20;99.90;;;;;;5035165;28;20225;-57
2021/12/12 06:19:48;;;;;;;16.05;9.75;;;4.20;99.90;;;;;;5035083;28;20194;-57
2021/12/12 06:22:16;;;;;;;14.82;8.00;;;4.30;99.90;;;;;;5035049;28;20574;-57
2021/12/12 06:24:43;;;;;;;13.68;9.32;;;4.30;99.90;;;;;;5035012;28;20202;-56
2021/12/12 06:27:12;;;;;;;11.88;7.75;;;4.30;99.90;;;;;;5034946;28;20260;-56
2021/12/12 06:29:40;;;;;;;11.57;8.18;;;4.30;99.90;;;;;;5034476;28;20206;-56
2021/12/12 06:32:08;;;;;;;10.88;7.90;;;4.30;99.90;;;;;;5033891;28;20226;-56
2021/12/12 06:34:37;;;;;;;11.73;7.22;;;4.30;99.90;;;;;;5034394;28;20689;-56
2021/12/12 06:37:05;;;;;;;17.83;8.35;;;4.40;99.90;;;;;;5034383;28;20199;-56
2021/12/12 06:39:33;;;;;;;11.63;8.88;;;4.40;99.90;;;;;;5034647;28;20202;-56
2021/12/12 06:42:01;;;;;;;11.48;8.73;;;4.40;99.90;;;;;;5034285;28;20709;-56
2021/12/12 06:44:29;;;;;;;15.45;9.25;;;4.30;99.90;;;;;;5034556;28;20212;-56
2021/12/12 06:46:56;;;;;;;12.10;8.65;;;4.30;99.90;;;;;;5034534;28;20226;-56
2021/12/12 06:49:25;;;;;;;13.38;8.90;;;4.30;99.90;;;;;;5034375;28;20234;-56
2021/12/12 06:51:56;;;;;;;17.92;9.20;;;4.30;99.90;;;;;;5034385;28;20226;-56
2021/12/12 06:54:27;;;;;;;12.38;8.30;;;4.30;99.90;;;;;;5034078;28;20190;-56
2021/12/12 06:56:59;;;;;;;13.00;8.35;;;4.20;99.90;;;;;;5034368;28;20182;-56
2021/12/12 06:59:30;;;;;;;13.88;9.77;;;4.20;99.90;;;;;;5034610;28;20190;-57
2021/12/12 07:01:58;;;;;;;12.85;9.73;;;4.20;99.90;;;;;;5034525;28;20590;-57
2021/12/12 07:04:27;;;;;;;15.70;10.10;;;4.20;99.90;;;;;;5034228;28;20616;-56
2021/12/12 07:06:58;;;;;;;13.40;10.45;;;4.20;99.90;;;;;;5033835;28;20202;-57
2021/12/12 07:09:27;;;;;;;16.40;10.00;;;4.20;99.90;;;;;;5034135;28;20206;-57
2021/12/12 07:11:55;;;;;;;17.25;10.70;;;4.20;99.90;;;;;;5034152;28;20222;-57
2021/12/12 07:14:22;;;;;;;13.15;9.23;;;4.20;99.90;;;;;;5034382;28;20573;-55
2021/12/12 07:16:49;;;;;;;14.38;9.45;;;4.20;99.90;;;;;;5034315;28;20210;-57
2021/12/12 07:19:18;;;;;;;15.70;9.50;;;4.20;99.90;;;;;;5033644;28;20671;-57
2021/12/12 07:21:45;;;;;;;13.95;9.43;;;4.20;99.90;;;;;;5033549;28;20226;-57
2021/12/12 07:24:17;;;;;;;15.25;10.20;;;4.20;99.90;;;;;;5033783;28;20202;-59
2021/12/12 07:26:45;;;;;;;17.42;10.45;;;4.20;99.90;;;;;;5033807;28;20193;-57
2021/12/12 07:29:12;;;;;;;15.80;9.95;;;4.20;99.90;;;;;;5033576;28;20233;-57
2021/12/12 07:31:42;;;;;;;16.98;10.32;;;4.10;99.90;;;;;;5033480;28;20226;-58
2021/12/12 07:34:12;;;;;;;17.58;11.43;;;4.10;99.90;;;;;;5033471;28;20191;-57
2021/12/12 07:36:44;;;;;;;20.73;10.90;;;4.10;99.90;;;;;;5033361;28;20202;-58
2021/12/12 07:39:13;;;;;;;17.52;10.95;;;4.10;99.90;;;;;;5033619;28;20529;-58
2021/12/12 07:41:43;;;;;;;22.77;11.45;;;4.10;99.90;;;;;;5033303;28;20568;-57
2021/12/12 07:44:12;;;;;;;17.58;10.80;;;4.10;99.90;;;;;;5033513;28;20307;-58
2021/12/12 07:46:40;;;;;;;21.58;13.52;;;4.10;99.90;;;;;;5033037;28;20210;-57
2021/12/12 07:49:08;;;;;;;17.48;12.10;;;4.20;99.90;;;;;;5034140;28;20225;-57
2021/12/12 07:51:38;;;;;;;19.25;12.77;;;4.10;99.90;;;;;;5033496;28;20283;-57
2021/12/12 07:54:07;;;;;;;23.08;12.48;;;4.10;99.90;;;;;;5033496;28;20666;-57
2021/12/12 07:56:36;;;;;;;23.40;12.70;;;4.10;99.90;;;;;;5033334;28;20202;-57
2021/12/12 07:59:07;;;;;;;18.38;13.45;;;4.20;99.90;;;;;;5033064;28;20221;-57
2021/12/12 08:01:36;;;;;;;17.92;12.20;;;4.20;99.90;;;;;;5033320;28;20228;-57
2021/12/12 08:04:05;;;;;;;20.27;14.35;;;4.20;99.90;;;;;;5032899;28;20211;-58
2021/12/12 08:06:32;;;;;;;19.58;13.10;;;4.20;99.90;;;;;;5032927;28;20654;-58
2021/12/12 08:09:00;;;;;;;17.63;12.55;;;4.20;99.90;;;;;;5033102;28;20230;-58
2021/12/12 08:11:29;;;;;;;21.48;13.98;;;4.30;99.90;;;;;;5032887;28;20229;-58
2021/12/12 08:13:58;;;;;;;20.73;12.85;;;4.30;99.90;;;;;;5032873;28;20202;-58
2021/12/12 08:16:27;;;;;;;18.90;11.35;;;4.30;99.90;;;;;;5033136;28;20210;-58
2021/12/12 08:18:57;;;;;;;17.42;12.35;;;4.30;99.90;;;;;;5032931;28;20201;-58
2021/12/12 08:21:25;;;;;;;25.48;13.23;;;4.30;99.90;;;;;;5032657;28;20234;-58
2021/12/12 08:23:55;;;;;;;20.42;13.60;;;4.40;99.90;;;;;;5033019;28;20206;-58
2021/12/12 08:26:23;;;;;;;18.45;12.23;;;4.40;99.90;;;;;;5032722;28;20202;-58
2021/12/12 08:28:50;;;;;;;19.88;12.05;;;4.40;99.90;;;;;;5032867;28;20230;-58
2021/12/12 08:31:17;;;;;;;16.60;11.38;;;4.40;99.90;;;;;;5033000;28;20229;-57
2021/12/12 08:33:46;;;;;;;19.73;11.73;;;4.40;99.90;;;;;;5032890;28;20674;-57
2021/12/12 08:36:16;;;;;;;16.38;10.75;;;4.40;99.90;;;;;;5033294;28;20321;-57
2021/12/12 08:38:43;;;;;;;14.25;10.32;;;4.40;99.90;;;;;;5033098;28;20195;-57
2021/12/12 08:41:10;;;;;;;15.25;11.25;;;4.50;99.90;;;;;;5032844;28;20226;-57
2021/12/12 08:43:39;;;;;;;16.55;10.23;;;4.50;99.90;;;;;;5033016;28;20206;-56
2021/12/12 08:46:10;;;;;;;16.15;11.05;;;4.50;99.90;;;;;;5033172;28;20244;-57
2021/12/12 08:48:39;;;;;;;18.05;11.30;;;4.50;99.90;;;;;;5032928;28;20218;-57
2021/12/12 08:51:12;;;;;;;17.50;10.35;;;4.60;99.90;;;;;;5032575;28;20231;-57
2021/12/12 08:53:40;;;;;;;16.88;10.23;;;4.60;99.90;;;;;;5032889;28;20189;-57
2021/12/12 08:56:17;;;;;;;16.70;10.48;;;4.60;99.90;;;;;;5036547;28;20297;-58
2021/12/12 08:58:44;;;;;;;13.13;8.73;;;4.60;99.90;;;;;;5036581;28;20193;-58
2021/12/12 09:01:14;;;;;;;16.02;8.80;;;4.70;99.90;;;;;;5036066;28;20223;-58
2021/12/12 09:03:44;;;;;;;12.73;8.90;;;4.70;99.90;;;;;;5036431;28;20198;-58
2021/12/12 09:06:15;;;;;;;17.98;10.18;;;4.70;99.90;;;;;;5035900;28;20210;-58
2021/12/12 09:08:47;;;;;;;16.85;9.38;;;4.70;99.90;;;;;;5035884;28;20207;-58
2021/12/12 09:11:20;;;;;;;13.98;8.55;;;4.70;99.90;;;;;;5035991;28;20219;-57
2021/12/12 09:13:54;;;;;;;16.27;9.88;;;4.70;99.90;;;;;;5036014;28;20233;-58
2021/12/12 09:16:24;;;;;;;13.57;8.38;;;4.70;99.90;;;;;;5036347;28;20205;-58
2021/12/12 09:18:56;;;;;;;17.27;9.32;;;4.70;99.90;;;;;;5035835;28;20684;-58
2021/12/12 09:21:28;;;;;;;10.07;7.95;;;4.70;99.90;;;;;;5035660;28;20230;-58
2021/12/12 09:24:06;;;;;;;12.32;8.73;;;4.70;99.90;;;;;;5035717;28;20550;-58
2021/12/12 09:26:37;;;;;;;16.48;7.90;;;4.80;99.90;;;;;;5036071;28;20186;-58
2021/12/12 09:29:13;;;;;;;11.55;7.60;;;4.80;99.90;;;;;;5035871;28;20210;-58
2021/12/12 09:31:49;;;;;;;12.45;7.55;;;4.90;99.90;;;;;;5035883;28;20229;-58
2021/12/12 09:34:24;;;;;;;9.27;6.88;;;4.90;99.90;;;;;;5035897;28;20190;-57
2021/12/12 09:36:57;;;;;;;10.77;7.45;;;4.90;99.90;;;;;;5035303;28;20197;-58
2021/12/12 09:39:29;;;;;;;10.48;7.75;;;5.00;99.90;;;;;;5035767;28;20186;-58
2021/12/12 09:42:16;;;;;;;11.05;7.10;;;5.00;99.90;;;;;;5035420;28;20226;-58
2021/12/12 09:44:58;;;;;;;10.65;7.25;;;5.00;99.90;;;;;;5035692;28;20197;-56
2021/12/12 09:47:59;;;;;;;11.88;6.95;;;5.00;99.90;;;;;;5035653;28;20201;-58
2021/12/12 09:53:43;;;;;;;10.80;6.50;;;5.10;99.90;;;;;;5035833;28;20241;-57
2021/12/12 09:56:22;;;;;;;9.27;7.32;;;5.10;99.90;;;;;;5036246;28;20187;-57
2021/12/12 09:59:00;;;;;;;9.45;6.80;;;5.20;99.90;;;;;;5035834;28;20190;-57
2021/12/12 10:01:30;;;;;;;9.25;7.32;;;5.30;99.90;;;;;;5035799;28;20605;-57
2021/12/12 10:04:09;;;;;;;11.63;6.25;;;5.30;99.90;;;;;;5035670;28;20205;-58
2021/12/12 10:06:46;;;;;;;8.90;6.22;;;5.30;99.90;;;;;;5035275;28;20186;-57
2021/12/12 10:09:17;;;;;;;11.65;6.85;;;5.20;99.90;;;;;;5034995;28;20689;-57
2021/12/12 10:11:53;;;;;;;10.35;6.93;;;5.20;99.90;;;;;;5035204;28;20292;-57
2021/12/12 10:14:30;;;;;;;8.00;5.88;;;5.20;99.90;;;;;;5034940;28;20197;-57
2021/12/12 10:17:03;;;;;;;9.25;5.97;;;5.20;99.90;;;;;;5034954;28;20190;-57
2021/12/12 10:19:36;;;;;;;6.50;5.78;;;5.20;99.90;;;;;;5035010;28;20190;-57
2021/12/12 10:22:21;;;;;;;10.00;5.70;;;5.30;99.90;;;;;;5069483;22;20237;-60
2021/12/12 10:25:06;;;;;;;10.77;6.60;;;5.30;99.90;;;;;;5037675;28;20183;-60
2021/12/12 10:27:37;;;;;;;6.82;5.40;;;5.40;99.90;;;;;;5036573;28;20202;-60
2021/12/12 10:30:11;;;;;;;9.35;5.03;;;5.40;99.90;;;;;;5036119;28;20216;-60
2021/12/12 10:32:47;;;;;;;7.95;4.30;;;5.40;99.90;;;;;;5036756;28;20226;-60
2021/12/12 10:35:18;;;;;;;9.93;4.10;;;5.40;99.90;;;;;;5035878;28;20205;-60
2021/12/12 10:37:54;;;;;;;7.28;3.33;;;5.40;99.90;;;;;;5035222;28;20190;-59
2021/12/12 10:40:27;;;;;;;7.43;3.90;;;5.50;99.90;;;;;;5034777;28;20650;-60
2021/12/12 10:43:00;;;;;;;4.45;4.00;;;5.60;99.90;;;;;;5035164;28;20186;-60
2021/12/12 10:45:30;;;;;;;5.82;3.38;;;5.60;99.90;;;;;;5035689;28;20183;-60
2021/12/12 10:48:01;;;;;;;6.20;3.67;;;5.70;99.90;;;;;;5034843;28;20206;-60
2021/12/12 10:50:42;;;;;;;7.10;3.45;;;5.70;99.90;;;;;;5035930;28;20210;-60
2021/12/12 10:53:19;;;;;;;4.68;3.40;;;5.80;99.90;;;;;;5036814;28;20194;-59
2021/12/12 10:55:53;;;;;;;6.43;3.80;;;5.80;99.90;;;;;;5043104;28;20191;-60
2021/12/12 10:58:27;;;;;;;5.93;3.45;;;5.80;99.90;;;;;;5037633;28;20197;-60
2021/12/12 11:00:57;;;;;;;9.00;3.78;;;5.80;99.90;;;;;;5034967;28;20225;-59
2021/12/12 11:03:30;;;;;;;3.90;3.40;;;5.80;99.90;;;;;;5035004;28;20202;-60
2021/12/12 11:06:02;;;;;;;4.80;3.20;;;5.90;99.90;;;;;;5035521;28;20201;-60
2021/12/12 11:08:35;;;;;;;6.30;3.65;;;5.90;99.90;;;;;;5035845;28;20317;-59
2021/12/12 11:11:10;;;;;;;5.72;3.10;;;5.90;99.90;;;;;;5034840;28;20237;-60
2021/12/12 11:13:42;;;;;;;3.75;3.25;;;5.90;99.90;;;;;;5034243;28;20186;-60
2021/12/12 11:16:14;;;;;;;3.95;3.63;;;5.80;99.90;;;;;;5034246;28;20216;-60
2021/12/12 11:18:46;;;;;;;4.45;3.47;;;5.80;99.90;;;;;;5034045;28;20261;-60
2021/12/12 11:21:19;;;;;;;5.35;3.83;;;5.80;99.90;;;;;;5034149;28;20230;-61
2021/12/12 11:23:52;;;;;;;4.32;3.70;;;5.80;99.90;;;;;;5034560;28;20609;-60
2021/12/12 11:26:24;;;;;;;4.07;3.65;;;5.80;99.90;;;;;;5034213;28;20190;-60
2021/12/12 11:28:56;;;;;;;5.18;3.35;;;5.80;99.90;;;;;;5042203;28;20195;-58
2021/12/12 11:31:26;;;;;;;6.05;3.40;;;5.90;99.90;;;;;;5041992;28;20230;-60
2021/12/12 11:33:55;;;;;;;4.70;3.95;;;5.80;99.90;;;;;;5034308;28;20607;-61
2021/12/12 11:36:26;;;;;;;4.68;3.60;;;5.80;99.90;;;;;;5034585;28;20210;-60
2021/12/12 11:39:04;;;;;;;8.40;3.75;;;5.80;99.90;;;;;;5033782;28;20209;-60
2021/12/12 11:41:49;;;;;;;4.30;3.42;;;5.80;99.90;;;;;;5033720;28;20225;-61
2021/12/12 11:44:24;;;;;;;4.88;3.50;;;5.80;99.90;;;;;;5033859;28;20639;-60
2021/12/12 11:46:56;;;;;;;3.33;3.03;;;5.80;99.90;;;;;;5034610;28;20585;-61
2021/12/12 11:49:28;;;;;;;5.18;4.15;;;5.80;99.90;;;;;;5033992;28;20682;-61
2021/12/12 11:52:00;;;;;;;4.28;3.42;;;5.90;99.90;;;;;;5033959;28;20729;-60
2021/12/12 11:54:34;;;;;;;6.28;3.45;;;5.90;99.90;;;;;;5034411;28;20209;-58
2021/12/12 11:57:07;;;;;;;4.57;3.60;;;5.90;99.90;;;;;;5034072;28;20591;-60
2021/12/12 11:59:39;;;;;;;6.00;3.70;;;5.90;99.90;;;;;;5034060;28;20179;-61
2021/12/12 12:02:26;;;;;;;3.67;3.30;;;5.90;99.90;;;;;;5034403;28;20253;-60
2021/12/12 12:05:07;;;;;;;5.43;3.72;;;5.90;99.90;;;;;;5034235;28;20213;-60
2021/12/12 12:07:57;;;;;;;4.60;4.00;;;5.90;99.90;;;;;;5034080;28;20218;-61
2021/12/12 12:10:38;;;;;;;3.55;3.25;;;5.90;99.90;;;;;;5034420;28;20252;-59
2021/12/12 12:13:47;;;;;;;4.60;2.95;;;5.90;99.90;;;;;;5033672;28;20665;-61
2021/12/12 12:16:28;;;;;;;5.90;3.55;;;5.90;99.90;;;;;;5028852;28;20202;-60
2021/12/12 12:19:04;;;;;;;5.65;3.30;;;6.00;99.90;;;;;;5036191;28;20201;-57
2021/12/12 12:21:39;;;;;;;3.85;2.80;;;6.00;99.90;;;;;;5038723;28;20603;-61
2021/12/12 12:24:13;;;;;;;4.45;3.63;;;6.00;99.90;;;;;;5039703;28;20190;-58
2021/12/12 12:26:52;;;;;;;3.97;3.15;;;6.00;99.90;;;;;;5037982;28;20190;-58
2021/12/12 12:30:03;;;;;;;2.75;2.53;;;5.90;99.90;;;;;;5037044;28;20197;-59
2021/12/12 12:33:06;;;;;;;3.90;3.15;;;5.90;99.90;;;;;;5013317;28;20222;-60
2021/12/12 12:36:10;;;;;;;3.60;3.30;;;5.90;99.90;;;;;;5015634;28;20212;-58
2021/12/12 12:39:14;;;;;;;4.00;3.38;;;5.90;99.90;;;;;;5037045;28;20213;-59
2021/12/12 12:42:21;;;;;;;3.67;3.13;;;5.80;99.90;;;;;;5037193;28;20217;-60
2021/12/12 12:45:25;;;;;;;3.90;3.40;;;5.80;99.90;;;;;;5037119;28;20194;-60
2021/12/12 12:48:29;;;;;;;4.95;3.15;;;5.80;99.90;;;;;;5037277;28;20213;-61
2021/12/12 12:51:22;;;;;;;7.75;3.70;;;5.80;99.90;;;;;;5038467;28;20228;-59
2021/12/12 12:54:15;;;;;;;5.68;3.15;;;5.80;99.90;;;;;;5034928;28;20237;-58
2021/12/12 12:57:07;;;;;;;4.78;3.20;;;5.80;99.90;;;;;;5029152;28;20670;-58
2021/12/12 12:59:52;;;;;;;3.80;3.10;;;5.80;99.90;;;;;;5036479;28;20203;-60
2021/12/12 13:02:23;;;;;;;4.05;3.10;;;5.80;99.90;;;;;;5037161;28;20282;-59
2021/12/12 13:05:31;;;;;;;3.97;3.65;;;5.80;99.90;;;;;;5037023;28;20194;-60
2021/12/12 13:08:43;;;;;;;4.35;3.72;;;5.80;99.90;;;;;;5037305;28;20556;-59
2021/12/12 13:11:14;;;;;;;3.85;3.25;;;5.80;99.90;;;;;;5003427;28;20234;-58
2021/12/12 13:13:48;;;;;;;3.10;2.80;;;5.80;99.90;;;;;;5036659;28;20194;-60
2021/12/12 13:16:25;;;;;;;4.85;3.03;;;5.90;99.90;;;;;;5038282;28;20186;-59
2021/12/12 13:18:58;;;;;;;3.78;3.10;;;5.90;99.90;;;;;;5037196;28;20190;-59
2021/12/12 13:21:33;;;;;;;4.65;3.15;;;5.90;99.90;;;;;;5036499;28;20714;-59
2021/12/12 13:24:08;;;;;;;3.65;3.20;;;5.90;99.90;;;;;;5036799;28;20186;-60
2021/12/12 13:27:07;;;;;;;3.45;3.15;;;5.90;99.90;;;;;;5036614;28;20190;-60
2021/12/12 13:29:54;;;;;;;4.10;3.70;;;5.90;99.90;;;;;;5035462;28;20210;-60
2021/12/12 13:32:27;;;;;;;5.22;3.83;;;5.80;99.90;;;;;;5035975;28;20226;-59
2021/12/12 13:35:02;;;;;;;2.83;2.53;;;5.80;99.90;;;;;;5036135;28;20237;-59
2021/12/12 13:37:36;;;;;;;4.22;3.83;;;5.80;99.90;;;;;;5036241;28;20193;-60
2021/12/12 13:40:17;;;;;;;4.03;3.47;;;5.80;99.90;;;;;;5035793;28;20189;-60
2021/12/12 13:42:54;;;;;;;4.43;3.70;;;5.80;99.90;;;;;;5036293;28;20618;-60
2021/12/12 13:45:32;;;;;;;5.88;3.70;;;5.80;99.90;;;;;;5035808;28;20186;-58